Time;durP1;ratioP1;P1;durP2;ratioP2;P2;SDS_P1;SDS_P2;PMS_P1;PMS_P2;Temp;Humidity;BMP_temperature;BMP_pressure;BME280_temperature;BME280_humidity;BME280_pressure;Samples;Min_cycle;Max_cycle;Signal;HPM_P1;HPM_P2
2023/05/29 00:00:17;;;;;;;10.15;4.13;;;;;;;7.99;100.00;98834.13;4158964;28;20466;-72
2023/05/29 00:02:18;;;;;;;8.73;4.30;;;;;;;7.90;100.00;98822.44;4164666;28;20428;-72
2023/05/29 00:04:18;;;;;;;6.72;4.60;;;;;;;7.86;100.00;98829.81;4160273;28;20033;-72
2023/05/29 00:06:19;;;;;;;7.53;4.20;;;;;;;7.76;100.00;98833.88;4159484;28;20021;-72
2023/05/29 00:08:19;;;;;;;6.40;4.22;;;;;;;7.72;100.00;98838.50;4159004;28;20164;-72
2023/05/29 00:10:19;;;;;;;6.53;4.38;;;;;;;7.67;100.00;98835.16;4159604;28;20442;-72
2023/05/29 00:12:20;;;;;;;7.10;4.07;;;;;;;7.68;100.00;98831.25;4163715;28;20108;-72
2023/05/29 00:14:22;;;;;;;5.38;3.70;;;;;;;7.78;100.00;98834.34;4163741;28;20072;-72
2023/05/29 00:16:26;;;;;;;10.82;4.45;;;;;;;7.79;100.00;98830.44;4158878;28;20103;-72
2023/05/29 00:18:27;;;;;;;6.72;3.97;;;;;;;7.79;100.00;98833.19;4159003;28;20049;-72
2023/05/29 00:20:27;;;;;;;6.95;4.30;;;;;;;7.77;100.00;98837.41;4159420;28;20033;-72
2023/05/29 00:22:27;;;;;;;9.18;4.45;;;;;;;7.79;100.00;98822.16;4158592;28;20044;-72
2023/05/29 00:24:27;;;;;;;10.00;5.22;;;;;;;7.72;100.00;98829.44;4158625;28;20481;-72
2023/05/29 00:26:28;;;;;;;7.75;4.30;;;;;;;7.75;100.00;98820.44;4159218;28;20038;-72
2023/05/29 00:28:28;;;;;;;5.25;3.95;;;;;;;7.71;100.00;98822.31;4158854;28;20048;-72
2023/05/29 00:30:28;;;;;;;7.13;5.10;;;;;;;7.69;100.00;98828.16;4158900;28;20037;-72
2023/05/29 00:32:29;;;;;;;8.52;4.32;;;;;;;7.61;100.00;98823.59;4158722;28;20041;-72
2023/05/29 00:34:29;;;;;;;8.75;4.72;;;;;;;7.59;100.00;98823.94;4158217;28;20091;-72
2023/05/29 00:36:31;;;;;;;7.13;4.72;;;;;;;7.56;100.00;98815.59;4165230;28;20041;-72
2023/05/29 00:38:31;;;;;;;9.38;4.93;;;;;;;7.52;100.00;98823.75;4158916;28;20049;-72
2023/05/29 00:40:32;;;;;;;7.43;4.68;;;;;;;7.46;100.00;98821.59;4158876;28;20044;-72
2023/05/29 00:42:32;;;;;;;6.95;3.90;;;;;;;7.40;100.00;98820.25;4163088;28;20064;-72
2023/05/29 00:44:32;;;;;;;6.53;4.40;;;;;;;7.33;100.00;98821.63;4161977;28;20208;-72
2023/05/29 00:46:33;;;;;;;8.57;4.78;;;;;;;7.23;100.00;98833.13;4164843;28;20540;-72
2023/05/29 00:48:33;;;;;;;8.07;5.13;;;;;;;7.18;100.00;98836.09;4158460;28;20044;-72
2023/05/29 00:50:34;;;;;;;5.97;4.70;;;;;;;7.12;100.00;98844.97;4158841;28;20051;-72
2023/05/29 00:52:35;;;;;;;6.82;4.30;;;;;;;7.09;100.00;98846.44;4158230;28;20161;-72
2023/05/29 00:54:36;;;;;;;7.82;4.95;;;;;;;7.18;100.00;98838.06;4162994;28;20128;-72
2023/05/29 00:56:38;;;;;;;6.35;4.90;;;;;;;7.23;100.00;98827.63;4159235;28;20041;-72
2023/05/29 00:58:39;;;;;;;6.53;4.45;;;;;;;7.25;100.00;98838.28;4159802;28;20041;-72
2023/05/29 01:00:40;;;;;;;8.15;4.88;;;;;;;7.28;100.00;98843.06;4157899;28;20482;-72
2023/05/29 01:02:44;;;;;;;7.28;5.43;;;;;;;7.22;100.00;98842.53;4157924;28;20037;-72
2023/05/29 01:04:45;;;;;;;7.40;5.03;;;;;;;7.21;100.00;98842.88;4158083;28;20065;-72
2023/05/29 01:06:45;;;;;;;7.13;4.65;;;;;;;7.22;100.00;98850.00;4158292;28;20041;-72
2023/05/29 01:08:45;;;;;;;8.13;4.72;;;;;;;7.17;100.00;98847.47;4158756;28;20072;-72
2023/05/29 01:10:47;;;;;;;8.45;5.50;;;;;;;7.11;100.00;98852.38;4158935;28;20045;-72
2023/05/29 01:12:55;;;;;;;8.52;4.80;;;;;;;7.09;100.00;98851.13;4157399;28;20091;-72
2023/05/29 01:15:13;;;;;;;9.25;4.82;;;;;;;7.13;100.00;98855.63;4158098;28;20056;-72
2023/05/29 01:17:16;;;;;;;6.57;4.53;;;;;;;7.14;100.00;98853.66;4158580;28;20541;-72
2023/05/29 01:19:48;;;;;;;9.13;5.30;;;;;;;7.20;100.00;98850.34;4156922;28;20371;-72
2023/05/29 01:22:33;;;;;;;8.13;4.75;;;;;;;7.21;100.00;98849.19;4158583;28;20084;-72
2023/05/29 01:24:50;;;;;;;6.93;4.40;;;;;;;7.16;100.00;98854.91;4156583;28;20061;-72
2023/05/29 01:27:04;;;;;;;12.88;5.82;;;;;;;7.05;100.00;98856.53;4158287;28;20049;-72
2023/05/29 01:29:07;;;;;;;6.10;4.22;;;;;;;6.92;100.00;98852.97;4157970;28;20056;-72
2023/05/29 01:31:10;;;;;;;10.35;5.25;;;;;;;6.84;100.00;98858.59;4157932;28;20067;-72
2023/05/29 01:33:11;;;;;;;8.07;4.78;;;;;;;6.77;100.00;98853.66;4157676;28;20048;-72
2023/05/29 01:35:12;;;;;;;6.75;4.68;;;;;;;6.70;100.00;98845.19;4164712;28;20481;-72
2023/05/29 01:37:13;;;;;;;8.75;5.63;;;;;;;6.69;100.00;98838.88;4163775;28;20037;-72
2023/05/29 01:39:14;;;;;;;10.88;4.97;;;;;;;6.63;100.00;98837.53;4161453;28;20045;-72
2023/05/29 01:41:15;;;;;;;7.80;4.80;;;;;;;6.71;100.00;98841.31;4164695;28;20045;-72
2023/05/29 01:43:17;;;;;;;8.70;4.93;;;;;;;6.69;100.00;98841.63;4166294;28;20080;-72
2023/05/29 01:45:18;;;;;;;7.97;5.03;;;;;;;6.66;100.00;98844.28;4161480;28;20412;-72
2023/05/29 01:47:18;;;;;;;7.47;4.45;;;;;;;6.61;100.00;98841.75;4157780;28;20034;-72
2023/05/29 01:49:19;;;;;;;7.30;5.20;;;;;;;6.56;100.00;98839.25;4158036;28;20045;-72
2023/05/29 01:51:20;;;;;;;7.25;4.75;;;;;;;6.52;100.00;98833.59;4158657;28;20501;-72
2023/05/29 01:53:22;;;;;;;9.00;4.57;;;;;;;6.47;100.00;98840.16;4157543;28;20053;-72
2023/05/29 01:55:23;;;;;;;7.82;4.60;;;;;;;6.57;100.00;98849.91;4157067;28;20474;-72
2023/05/29 01:57:25;;;;;;;7.95;4.32;;;;;;;6.64;100.00;98841.09;4160594;28;20042;-71
2023/05/29 01:59:26;;;;;;;9.48;4.65;;;;;;;6.71;100.00;98833.88;4160480;28;20034;-72
2023/05/29 02:01:26;;;;;;;7.93;4.65;;;;;;;6.80;100.00;98841.19;4159188;28;20056;-72
2023/05/29 02:03:30;;;;;;;9.35;4.75;;;;;;;6.82;100.00;98842.44;4156791;28;20063;-72
2023/05/29 02:05:30;;;;;;;8.70;4.90;;;;;;;6.87;100.00;98842.22;4163172;28;20073;-72
2023/05/29 02:07:30;;;;;;;5.93;4.10;;;;;;;6.83;100.00;98844.06;4157675;28;20144;-72
2023/05/29 02:09:31;;;;;;;6.97;4.63;;;;;;;6.84;100.00;98844.84;4162911;28;20500;-72
2023/05/29 02:11:31;;;;;;;9.13;3.67;;;;;;;6.82;100.00;98844.41;4157131;28;20045;-72
2023/05/29 02:13:32;;;;;;;7.55;4.13;;;;;;;6.82;100.00;98842.44;4157100;28;20041;-71
2023/05/29 02:15:32;;;;;;;6.50;4.78;;;;;;;6.81;100.00;98845.56;4156279;28;20044;-72
2023/05/29 02:17:33;;;;;;;6.50;4.43;;;;;;;6.64;100.00;98844.63;4173520;28;20155;-72
2023/05/29 02:19:33;;;;;;;7.00;4.72;;;;;;;6.53;100.00;98848.97;4172975;28;20064;-72
2023/05/29 02:21:33;;;;;;;7.95;4.78;;;;;;;6.35;100.00;98847.56;4172107;28;20083;-72
2023/05/29 02:23:33;;;;;;;10.98;4.90;;;;;;;6.22;100.00;98852.25;4172018;28;20048;-72
2023/05/29 02:25:34;;;;;;;7.93;4.60;;;;;;;6.11;100.00;98854.59;4159522;28;20494;-72
2023/05/29 02:27:34;;;;;;;5.88;4.55;;;;;;;6.08;100.00;98852.53;4170275;28;20473;-72
2023/05/29 02:29:35;;;;;;;11.15;5.10;;;;;;;6.01;100.00;98852.28;4172271;28;20033;-72
2023/05/29 02:31:35;;;;;;;8.65;4.32;;;;;;;6.00;100.00;98858.13;4174030;28;20477;-72
2023/05/29 02:33:35;;;;;;;11.80;5.35;;;;;;;6.01;100.00;98863.28;4164682;28;20081;-71
2023/05/29 02:35:36;;;;;;;10.95;5.40;;;;;;;5.92;100.00;98859.81;4166748;28;20052;-71
2023/05/29 02:37:36;;;;;;;11.10;5.07;;;;;;;5.87;100.00;98869.03;4159796;28;20470;-72
2023/05/29 02:39:36;;;;;;;8.30;4.70;;;;;;;5.87;100.00;98869.03;4158088;28;20038;-72
2023/05/29 02:41:37;;;;;;;9.10;5.28;;;;;;;5.81;100.00;98858.59;4157923;28;20481;-71
2023/05/29 02:43:37;;;;;;;7.60;5.60;;;;;;;5.79;100.00;98867.19;4163861;28;20061;-72
2023/05/29 02:45:37;;;;;;;7.95;4.72;;;;;;;5.76;100.00;98862.34;4158230;28;20060;-72
2023/05/29 02:47:38;;;;;;;10.27;5.68;;;;;;;5.73;100.00;98867.72;4158214;28;20363;-72
2023/05/29 02:49:38;;;;;;;10.18;5.63;;;;;;;5.65;100.00;98872.16;4162160;28;20041;-72
2023/05/29 02:51:39;;;;;;;9.98;5.35;;;;;;;5.58;100.00;98869.94;4173724;28;20402;-71
2023/05/29 02:53:39;;;;;;;11.05;5.78;;;;;;;5.57;100.00;98876.56;4163430;28;20123;-72
2023/05/29 02:55:40;;;;;;;8.05;4.68;;;;;;;5.58;100.00;98871.88;4157718;28;20060;-72
2023/05/29 02:57:40;;;;;;;9.45;5.38;;;;;;;5.55;100.00;98869.81;4158366;28;20138;-71
2023/05/29 02:59:41;;;;;;;6.88;4.93;;;;;;;5.54;100.00;98876.41;4161575;28;20128;-71
2023/05/29 03:01:42;;;;;;;9.50;5.90;;;;;;;5.60;100.00;98875.09;4161061;28;20627;-71
2023/05/29 03:03:43;;;;;;;7.90;4.93;;;;;;;5.57;100.00;98873.81;4175285;28;20056;-72
2023/05/29 03:05:43;;;;;;;8.48;5.07;;;;;;;5.57;100.00;98884.00;4176472;28;20469;-71
2023/05/29 03:07:44;;;;;;;8.88;5.32;;;;;;;5.54;100.00;98882.72;4174903;28;20436;-72
2023/05/29 03:09:44;;;;;;;6.43;4.35;;;;;;;5.52;100.00;98890.47;4176043;28;20071;-72
2023/05/29 03:11:45;;;;;;;6.22;4.35;;;;;;;5.47;100.00;98881.66;4176194;28;20045;-71
2023/05/29 03:13:46;;;;;;;8.07;4.72;;;;;;;5.46;100.00;98886.34;4160330;28;20037;-72
2023/05/29 03:15:47;;;;;;;7.93;4.53;;;;;;;5.44;100.00;98885.88;4164832;28;20041;-71
2023/05/29 03:17:47;;;;;;;8.85;5.35;;;;;;;5.48;100.00;98897.00;4174774;28;20064;-71
2023/05/29 03:19:48;;;;;;;6.82;4.40;;;;;;;5.48;100.00;98892.31;4163424;28;20486;-71
2023/05/29 03:21:48;;;;;;;8.63;4.80;;;;;;;5.50;100.00;98895.50;4160394;28;20409;-71
2023/05/29 03:23:48;;;;;;;8.18;5.43;;;;;;;5.56;100.00;98902.41;4165923;28;20380;-71
2023/05/29 03:25:49;;;;;;;8.27;5.78;;;;;;;5.57;100.00;98904.00;4175118;28;20460;-71
2023/05/29 03:27:49;;;;;;;8.45;4.60;;;;;;;5.53;100.00;98905.81;4160775;28;20077;-71
2023/05/29 03:29:49;;;;;;;6.20;4.55;;;;;;;5.52;100.00;98914.38;4160777;28;20065;-71
2023/05/29 03:31:50;;;;;;;9.00;5.13;;;;;;;5.50;100.00;98916.66;4161165;28;20761;-71
2023/05/29 03:33:50;;;;;;;7.30;4.78;;;;;;;5.51;100.00;98923.75;4159934;28;20128;-71
2023/05/29 03:35:50;;;;;;;7.22;4.70;;;;;;;5.47;100.00;98914.59;4160106;28;20045;-72
2023/05/29 03:37:51;;;;;;;8.48;5.22;;;;;;;5.50;100.00;98924.91;4160711;28;20033;-71
2023/05/29 03:39:51;;;;;;;7.97;4.45;;;;;;;5.47;100.00;98922.84;4160640;28;20037;-71
2023/05/29 03:41:51;;;;;;;10.75;5.85;;;;;;;5.45;100.00;98917.66;4172671;28;20052;-71
2023/05/29 03:43:51;;;;;;;8.13;4.90;;;;;;;5.43;100.00;98917.19;4159756;28;20037;-71
2023/05/29 03:45:52;;;;;;;7.15;5.10;;;;;;;5.44;100.00;98924.28;4161527;28;20404;-71
2023/05/29 03:47:52;;;;;;;8.07;5.18;;;;;;;5.49;100.00;98926.03;4174431;28;20041;-71
2023/05/29 03:49:52;;;;;;;8.50;5.10;;;;;;;5.51;100.00;98930.06;4174894;28;20123;-71
2023/05/29 03:51:53;;;;;;;6.53;4.30;;;;;;;5.54;100.00;98926.63;4166111;28;20218;-71
2023/05/29 03:53:53;;;;;;;8.32;4.53;;;;;;;5.61;100.00;98926.91;4161535;28;20478;-71
2023/05/29 03:55:54;;;;;;;7.00;4.18;;;;;;;5.69;100.00;98924.44;4173179;28;20037;-71
2023/05/29 03:57:54;;;;;;;8.38;4.55;;;;;;;5.88;100.00;98935.75;4160770;28;20300;-71
2023/05/29 03:59:55;;;;;;;8.68;4.60;;;;;;;5.94;100.00;98937.19;4160423;28;20065;-71
2023/05/29 04:01:55;;;;;;;8.55;5.75;;;;;;;5.99;100.00;98936.97;4163102;28;20045;-71
2023/05/29 04:03:55;;;;;;;10.35;4.70;;;;;;;5.98;100.00;98940.88;4164714;28;20056;-71
2023/05/29 04:05:56;;;;;;;8.98;4.63;;;;;;;5.99;100.00;98941.69;4166658;28;20045;-71
2023/05/29 04:07:56;;;;;;;10.18;5.13;;;;;;;6.01;100.00;98951.19;4160175;28;20041;-71
2023/05/29 04:09:56;;;;;;;9.07;5.18;;;;;;;6.01;100.00;98950.38;4159224;28;20045;-71
2023/05/29 04:11:57;;;;;;;7.82;5.25;;;;;;;6.01;100.00;98953.94;4163262;28;20081;-71
2023/05/29 04:13:57;;;;;;;9.25;5.00;;;;;;;6.10;100.00;98951.09;4167692;28;20077;-71
2023/05/29 04:15:57;;;;;;;5.80;4.55;;;;;;;6.22;100.00;98953.13;4160062;28;20041;-71
2023/05/29 04:17:58;;;;;;;8.05;4.85;;;;;;;6.28;100.00;98962.72;4160201;28;20046;-71
2023/05/29 04:19:59;;;;;;;8.30;4.65;;;;;;;6.33;100.00;98965.28;4167239;28;20077;-71
2023/05/29 04:21:59;;;;;;;9.50;4.60;;;;;;;6.38;100.00;98957.63;4174366;28;20187;-71
2023/05/29 04:24:00;;;;;;;7.93;5.07;;;;;;;6.53;100.00;98971.88;4172880;28;20079;-71
2023/05/29 04:26:05;;;;;;;7.65;4.22;;;;;;;6.65;100.00;98969.16;4176259;28;20459;-71
2023/05/29 04:28:05;;;;;;;8.25;4.70;;;;;;;6.85;100.00;98968.28;4173675;28;20045;-72
2023/05/29 04:30:07;;;;;;;8.00;4.15;;;;;;;7.03;100.00;98975.19;4164967;28;20037;-71
2023/05/29 04:32:11;;;;;;;6.70;4.22;;;;;;;7.22;100.00;98971.88;4168743;28;20067;-72
2023/05/29 04:34:11;;;;;;;9.48;4.38;;;;;;;7.37;100.00;98970.41;4158784;28;20044;-72
2023/05/29 04:36:11;;;;;;;7.43;4.50;;;;;;;7.49;100.00;98975.88;4159793;28;20029;-72
2023/05/29 04:38:12;;;;;;;8.30;4.93;;;;;;;7.63;100.00;98978.28;4159248;28;20022;-72
2023/05/29 04:40:17;;;;;;;8.45;4.32;;;;;;;7.77;100.00;98980.66;4158857;28;20179;-72
2023/05/29 04:42:18;;;;;;;8.73;4.47;;;;;;;7.86;100.00;98967.53;4156487;28;20053;-72
2023/05/29 04:44:18;;;;;;;9.30;4.90;;;;;;;7.98;100.00;98983.25;4160009;28;20036;-72
2023/05/29 04:46:19;;;;;;;6.38;3.95;;;;;;;8.11;100.00;98982.09;4162773;28;20029;-72
2023/05/29 04:48:19;;;;;;;8.23;3.97;;;;;;;8.19;100.00;98981.13;4159844;28;20446;-71
2023/05/29 04:50:20;;;;;;;10.70;4.25;;;;;;;8.31;100.00;98989.34;4161703;28;20017;-72
2023/05/29 04:52:23;;;;;;;6.85;4.47;;;;;;;8.43;100.00;98986.56;4159493;28;20511;-72
2023/05/29 04:54:24;;;;;;;6.70;4.10;;;;;;;8.57;100.00;98986.16;4160515;28;20458;-72
2023/05/29 04:56:24;;;;;;;8.77;4.25;;;;;;;8.69;100.00;99002.69;4160104;28;20133;-71
2023/05/29 04:58:25;;;;;;;8.57;4.60;;;;;;;8.80;100.00;98989.16;4159017;28;20041;-72
2023/05/29 05:00:26;;;;;;;7.10;3.97;;;;;;;8.88;100.00;98990.94;4159507;28;20072;-72
2023/05/29 05:02:27;;;;;;;5.93;4.13;;;;;;;8.96;100.00;98992.75;4158645;28;20120;-72
2023/05/29 05:04:27;;;;;;;5.80;4.00;;;;;;;9.07;100.00;98989.44;4158316;28;20293;-72
2023/05/29 05:06:28;;;;;;;5.68;4.20;;;;;;;9.19;100.00;99000.41;4158508;28;20385;-71
2023/05/29 05:08:30;;;;;;;6.63;4.47;;;;;;;9.34;100.00;98998.78;4159154;28;20033;-72
2023/05/29 05:10:30;;;;;;;7.50;4.70;;;;;;;9.42;100.00;98992.28;4158916;28;20046;-72
2023/05/29 05:12:30;;;;;;;7.95;5.35;;;;;;;9.50;100.00;98997.63;4158446;28;20377;-72
2023/05/29 05:14:31;;;;;;;7.70;4.60;;;;;;;9.61;100.00;99000.66;4158185;28;20391;-72
2023/05/29 05:16:32;;;;;;;7.30;4.90;;;;;;;9.72;100.00;98998.13;4159121;28;20059;-72
2023/05/29 05:18:33;;;;;;;8.53;4.47;;;;;;;9.82;100.00;99000.34;4159341;28;20045;-72
2023/05/29 05:20:33;;;;;;;7.15;4.60;;;;;;;9.93;100.00;98997.81;4158993;28;20622;-72
2023/05/29 05:22:33;;;;;;;11.13;4.72;;;;;;;10.02;100.00;98999.22;4158015;28;20363;-72
2023/05/29 05:24:34;;;;;;;11.70;5.05;;;;;;;10.15;100.00;98997.09;4160514;28;20040;-72
2023/05/29 05:26:35;;;;;;;11.20;4.78;;;;;;;10.26;100.00;98994.59;4163028;28;20033;-72
2023/05/29 05:28:35;;;;;;;7.43;4.55;;;;;;;10.36;100.00;98991.28;4159067;28;20049;-72
2023/05/29 05:30:35;;;;;;;6.60;3.95;;;;;;;10.46;100.00;99000.94;4159000;28;20046;-72
2023/05/29 05:32:36;;;;;;;8.80;4.68;;;;;;;10.54;100.00;98992.41;4172623;28;20389;-72
2023/05/29 05:34:36;;;;;;;6.97;4.07;;;;;;;10.60;100.00;98999.28;4166387;28;20381;-72
2023/05/29 05:36:36;;;;;;;7.85;5.15;;;;;;;10.68;100.00;99002.97;4158869;28;20064;-72
2023/05/29 05:38:37;;;;;;;9.05;4.50;;;;;;;10.76;100.00;99004.72;4158892;28;20046;-72
2023/05/29 05:40:37;;;;;;;7.60;4.93;;;;;;;10.84;100.00;99005.63;4161958;28;20495;-72
2023/05/29 05:42:37;;;;;;;8.60;4.78;;;;;;;10.96;100.00;99009.03;4173379;28;20037;-72
2023/05/29 05:44:38;;;;;;;9.60;4.43;;;;;;;11.05;100.00;98989.41;4163631;28;20300;-72
2023/05/29 05:46:38;;;;;;;6.20;3.92;;;;;;;11.20;100.00;99007.09;4164914;28;20126;-72
2023/05/29 05:48:40;;;;;;;6.32;4.22;;;;;;;11.29;100.00;99004.06;4158860;28;20042;-72
2023/05/29 05:50:41;;;;;;;7.90;4.97;;;;;;;11.37;100.00;98997.47;4170862;28;20045;-72
2023/05/29 05:52:41;;;;;;;11.88;5.85;;;;;;;11.45;100.00;99004.72;4172859;28;20132;-72
2023/05/29 05:54:42;;;;;;;8.30;4.72;;;;;;;11.59;100.00;99006.94;4157591;28;20486;-72
2023/05/29 05:56:42;;;;;;;8.93;5.10;;;;;;;11.66;100.00;99002.28;4158416;28;20352;-72
2023/05/29 05:58:42;;;;;;;9.35;5.18;;;;;;;11.76;100.00;99009.19;4157820;28;20529;-72
2023/05/29 06:00:43;;;;;;;8.60;4.90;;;;;;;11.84;100.00;99015.66;4157309;28;20492;-72
2023/05/29 06:02:44;;;;;;;10.32;4.45;;;;;;;11.90;100.00;99005.84;4157077;28;20026;-72
2023/05/29 06:04:45;;;;;;;10.43;6.05;;;;;;;11.98;100.00;99010.31;4158482;28;20092;-72
2023/05/29 06:06:46;;;;;;;10.15;4.72;;;;;;;12.02;100.00;99006.44;4157542;28;20060;-72
2023/05/29 06:08:46;;;;;;;11.73;4.30;;;;;;;12.11;100.00;99008.94;4160640;28;20041;-72
2023/05/29 06:10:47;;;;;;;12.07;6.05;;;;;;;12.16;100.00;99002.22;4159425;28;20034;-72
2023/05/29 06:12:47;;;;;;;7.82;4.75;;;;;;;12.21;100.00;99005.50;4159738;28;20037;-72
2023/05/29 06:14:47;;;;;;;13.68;5.35;;;;;;;12.27;100.00;99005.97;4157637;28;20037;-72
2023/05/29 06:16:48;;;;;;;9.60;4.53;;;;;;;12.30;100.00;99010.75;4157424;28;20065;-72
2023/05/29 06:18:48;;;;;;;9.98;5.38;;;;;;;12.37;100.00;99010.84;4159558;28;20428;-71
2023/05/29 06:20:48;;;;;;;10.30;4.70;;;;;;;12.51;100.00;99010.25;4157655;28;20095;-73
2023/05/29 06:22:50;;;;;;;9.20;4.70;;;;;;;12.63;100.00;99026.63;4160374;28;20048;-72
2023/05/29 06:24:50;;;;;;;9.38;4.65;;;;;;;12.72;100.00;99029.13;4157764;28;20033;-72
2023/05/29 06:26:51;;;;;;;8.02;4.85;;;;;;;12.77;100.00;99026.00;4158845;28;20057;-72
2023/05/29 06:28:51;;;;;;;8.68;4.70;;;;;;;12.86;100.00;99029.28;4159303;28;20037;-72
2023/05/29 06:30:52;;;;;;;9.70;4.53;;;;;;;12.90;100.00;99028.13;4157154;28;20084;-73
2023/05/29 06:32:52;;;;;;;9.45;4.53;;;;;;;12.91;100.00;99026.97;4156774;28;20098;-72
2023/05/29 06:34:53;;;;;;;9.02;4.90;;;;;;;13.00;100.00;99028.66;4157756;28;20339;-72
2023/05/29 06:36:53;;;;;;;8.50;4.13;;;;;;;13.06;100.00;99032.66;4157225;28;20125;-72
2023/05/29 06:38:53;;;;;;;11.90;5.00;;;;;;;13.15;100.00;99033.94;4159365;28;20442;-72
2023/05/29 06:40:54;;;;;;;10.55;4.05;;;;;;;13.26;100.00;99044.41;4157970;28;20042;-72
2023/05/29 06:42:54;;;;;;;10.15;4.90;;;;;;;13.34;100.00;99040.53;4156651;28;20112;-72
2023/05/29 06:44:55;;;;;;;7.25;4.75;;;;;;;13.40;100.00;99037.00;4158537;28;20049;-72
2023/05/29 06:46:55;;;;;;;10.52;4.85;;;;;;;13.44;100.00;99042.59;4157867;28;20033;-72
2023/05/29 06:48:55;;;;;;;10.90;4.63;;;;;;;13.48;100.00;99044.22;4158734;28;20080;-72
2023/05/29 06:50:55;;;;;;;7.93;4.60;;;;;;;13.46;100.00;99034.66;4160148;28;20176;-72
2023/05/29 06:52:56;;;;;;;8.45;4.63;;;;;;;13.50;100.00;99035.50;4158923;28;20522;-72
2023/05/29 06:54:56;;;;;;;11.75;5.18;;;;;;;13.60;100.00;99031.22;4159178;28;20120;-72
2023/05/29 06:56:57;;;;;;;8.65;4.68;;;;;;;13.62;100.00;99040.75;4157308;28;20091;-72
2023/05/29 06:58:57;;;;;;;8.38;4.32;;;;;;;13.68;100.00;99024.53;4156725;28;20042;-72
2023/05/29 07:01:35;;;;;;;5.70;4.05;;;;;;;13.75;100.00;99038.50;4157937;28;20076;-72
2023/05/29 07:03:36;;;;;;;8.27;4.38;;;;;;;13.80;100.00;99040.09;4156646;28;20072;-72
2023/05/29 07:05:36;;;;;;;10.13;4.68;;;;;;;13.91;100.00;99035.44;4157613;28;20047;-72
2023/05/29 07:07:37;;;;;;;9.73;4.40;;;;;;;13.98;100.00;99041.03;4156170;28;20527;-72
2023/05/29 07:09:39;;;;;;;12.73;4.72;;;;;;;14.00;100.00;99038.66;4159324;28;20160;-72
2023/05/29 07:11:39;;;;;;;7.35;4.63;;;;;;;14.00;100.00;99039.47;4157298;28;20049;-72
2023/05/29 07:13:39;;;;;;;13.73;8.15;;;;;;;13.96;99.40;99048.97;4158234;28;20042;-72
2023/05/29 07:15:40;;;;;;;12.13;6.22;;;;;;;14.03;99.01;99047.03;4159385;28;20412;-72
2023/05/29 07:17:40;;;;;;;9.65;5.47;;;;;;;13.98;100.00;99046.59;4157358;28;20095;-72
2023/05/29 07:19:41;;;;;;;9.27;4.82;;;;;;;14.03;98.84;99043.44;4157159;28;20037;-72
2023/05/29 07:21:41;;;;;;;12.68;4.38;;;;;;;14.00;99.22;99031.13;4157235;28;20073;-72
2023/05/29 07:23:42;;;;;;;8.63;4.18;;;;;;;14.00;98.54;99045.03;4156538;28;20085;-72
2023/05/29 07:25:42;;;;;;;14.00;5.15;;;;;;;14.04;98.99;99036.69;4158599;28;20045;-72
2023/05/29 07:27:42;;;;;;;7.63;4.70;;;;;;;14.10;99.66;99042.69;4072726;28;20437;-72
2023/05/29 07:29:43;;;;;;;7.07;5.05;;;;;;;14.15;100.00;99043.16;4155097;28;20058;-72
2023/05/29 07:31:44;;;;;;;11.68;4.57;;;;;;;14.10;98.65;99037.94;4143333;28;20045;-72
2023/05/29 07:33:44;;;;;;;6.85;5.32;;;;;;;14.31;97.71;99038.06;4139681;28;20099;-72
2023/05/29 07:35:48;;;;;;;9.27;4.97;;;;;;;14.26;96.64;99041.22;4141141;28;20046;-72
2023/05/29 07:37:49;;;;;;;6.95;4.22;;;;;;;14.42;97.72;99040.09;4141268;28;20038;-72
2023/05/29 07:39:50;;;;;;;9.88;4.97;;;;;;;14.42;96.68;99040.09;4147163;28;20489;-72
2023/05/29 07:41:50;;;;;;;8.45;4.50;;;;;;;14.51;99.18;99038.59;4140658;28;20034;-72
2023/05/29 07:43:52;;;;;;;8.43;4.30;;;;;;;14.51;94.20;99030.22;4140247;28;20441;-72
2023/05/29 07:45:52;;;;;;;31.63;17.70;;;;;;;14.60;94.60;99039.03;4144198;28;20617;-72
2023/05/29 07:47:52;;;;;;;12.20;7.45;;;;;;;14.65;96.01;99040.66;4159242;28;20447;-72
2023/05/29 07:49:52;;;;;;;10.95;5.20;;;;;;;14.67;93.92;99041.03;4157612;28;20223;-72
2023/05/29 07:51:53;;;;;;;8.02;4.28;;;;;;;14.68;92.84;99036.28;4144226;28;20053;-72
2023/05/29 07:53:53;;;;;;;10.88;5.00;;;;;;;14.74;92.77;99037.50;4145725;28;20057;-72
2023/05/29 07:55:54;;;;;;;7.85;4.60;;;;;;;14.77;93.12;99042.28;4156145;28;20377;-72
2023/05/29 07:57:54;;;;;;;9.85;4.60;;;;;;;14.78;91.64;99039.09;4143733;28;20044;-72
2023/05/29 07:59:54;;;;;;;8.07;4.43;;;;;;;14.81;91.93;99035.53;4143707;28;20103;-72
2023/05/29 08:01:57;;;;;;;5.82;4.05;;;;;;;14.85;90.76;99050.25;4145262;28;20041;-72
2023/05/29 08:03:58;;;;;;;9.45;4.88;;;;;;;15.00;94.73;99047.53;4140400;28;20374;-72
2023/05/29 08:05:58;;;;;;;7.55;4.32;;;;;;;15.10;90.63;99058.69;4142515;28;20049;-72
2023/05/29 08:07:58;;;;;;;8.13;4.57;;;;;;;15.18;91.61;99042.78;4143624;28;20658;-72
2023/05/29 08:09:59;;;;;;;9.30;4.65;;;;;;;15.20;90.67;99050.75;4144801;28;20113;-72
2023/05/29 08:12:00;;;;;;;8.60;4.78;;;;;;;15.30;91.30;99049.97;4143177;28;20038;-72
2023/05/29 08:14:01;;;;;;;9.05;4.53;;;;;;;15.34;91.44;99053.56;4141154;28;20337;-72
2023/05/29 08:16:01;;;;;;;6.75;4.22;;;;;;;15.41;93.47;99050.78;4143422;28;20040;-73
2023/05/29 08:18:01;;;;;;;8.50;4.13;;;;;;;15.51;93.90;99061.16;4143080;28;20025;-72
2023/05/29 08:20:05;;;;;;;7.50;4.35;;;;;;;15.55;91.26;99050.78;4142100;28;20429;-73
2023/05/29 08:22:06;;;;;;;11.00;4.35;;;;;;;15.75;93.73;99059.59;4145533;28;21317;-73
2023/05/29 08:24:06;;;;;;;8.88;4.55;;;;;;;15.66;89.01;99056.41;4144705;28;20125;-73
2023/05/29 08:26:07;;;;;;;7.28;4.30;;;;;;;15.68;89.69;99062.41;4142659;28;20029;-72
2023/05/29 08:28:07;;;;;;;9.45;4.43;;;;;;;15.70;89.28;99062.78;4143085;28;20313;-72
2023/05/29 08:30:08;;;;;;;8.52;4.70;;;;;;;15.73;89.18;99062.81;4142576;28;20112;-72
2023/05/29 08:32:10;;;;;;;10.45;4.70;;;;;;;15.73;90.28;99062.81;4141904;28;20057;-73
2023/05/29 08:34:10;;;;;;;9.43;4.50;;;;;;;15.82;89.47;99064.41;4144212;28;20479;-72
2023/05/29 08:36:10;;;;;;;10.13;4.28;;;;;;;15.82;88.02;99058.81;4150898;28;20068;-72
2023/05/29 08:38:11;;;;;;;7.97;4.00;;;;;;;15.79;89.41;99062.38;4143209;28;20029;-72
2023/05/29 08:40:12;;;;;;;5.82;3.97;;;;;;;15.93;88.14;99065.97;4143458;28;20352;-72
2023/05/29 08:42:22;;;;;;;7.82;4.30;;;;;;;16.00;87.59;99065.19;4143358;28;20358;-72
2023/05/29 08:44:22;;;;;;;8.45;4.45;;;;;;;16.13;88.50;99068.34;4142844;28;20091;-72
2023/05/29 08:46:24;;;;;;;8.15;4.30;;;;;;;16.08;88.19;99061.19;4143454;28;20161;-73
2023/05/29 08:48:25;;;;;;;7.18;4.57;;;;;;;16.07;86.95;99061.59;4146081;28;20042;-72
2023/05/29 08:50:25;;;;;;;8.63;4.15;;;;;;;16.04;88.02;99063.16;4142617;28;20421;-72
2023/05/29 08:52:27;;;;;;;8.35;4.25;;;;;;;16.04;86.35;99065.94;4143007;28;20042;-72
2023/05/29 08:54:31;;;;;;;6.38;3.78;;;;;;;16.22;86.32;99072.34;4142913;28;20498;-73
2023/05/29 08:56:33;;;;;;;8.38;4.45;;;;;;;16.26;84.76;99058.34;4142398;28;20034;-73
2023/05/29 08:58:34;;;;;;;9.02;4.22;;;;;;;16.35;84.54;99063.53;4143232;28;20082;-73
2023/05/29 09:00:34;;;;;;;10.18;4.47;;;;;;;16.31;82.83;99065.53;4142119;28;20073;-73
2023/05/29 09:02:35;;;;;;;10.38;4.30;;;;;;;16.36;83.51;99059.53;4142617;28;20038;-72
2023/05/29 09:04:37;;;;;;;8.70;4.28;;;;;;;16.46;83.44;99055.91;4151439;28;20038;-73
2023/05/29 09:06:41;;;;;;;7.68;3.78;;;;;;;16.56;83.98;99057.88;4147905;28;20550;-73
2023/05/29 09:08:41;;;;;;;7.80;4.00;;;;;;;16.58;84.41;99056.28;4150708;28;20041;-73
2023/05/29 09:10:45;;;;;;;8.57;4.07;;;;;;;16.63;83.70;99054.25;4146575;28;20099;-73
2023/05/29 09:12:46;;;;;;;16.30;4.40;;;;;;;16.63;84.39;99060.63;4141006;28;20073;-73
2023/05/29 09:14:48;;;;;;;11.93;4.22;;;;;;;16.68;84.95;99054.63;4142795;28;20042;-73
2023/05/29 09:16:48;;;;;;;7.50;4.38;;;;;;;16.71;84.97;99053.84;4142913;28;20145;-73
2023/05/29 09:18:48;;;;;;;9.25;4.15;;;;;;;16.85;84.72;99058.59;4143064;28;20038;-73
2023/05/29 09:20:49;;;;;;;8.90;4.30;;;;;;;16.86;83.05;99062.97;4143826;28;20069;-73
2023/05/29 09:22:53;;;;;;;8.20;4.82;;;;;;;16.87;81.98;99066.56;4142789;28;20387;-73
2023/05/29 09:24:54;;;;;;;9.73;4.60;;;;;;;16.75;83.31;99057.44;4157587;28;20041;-73
2023/05/29 09:26:55;;;;;;;8.75;4.55;;;;;;;16.89;85.39;99058.59;4157114;28;20389;-73